Time;durP1;ratioP1;P1;durP2;ratioP2;P2;SDS_P1;SDS_P2;PMS_P1;PMS_P2;Temp;Humidity;BMP_temperature;BMP_pressure;BME280_temperature;BME280_humidity;BME280_pressure;Samples;Min_cycle;Max_cycle;Signal;HPM_P1;HPM_P2
2023/05/19 02:01:23;;;;;;;7.28;5.20;;;;;;;;;;4688517;27;21397;-76
2023/05/19 02:04:19;;;;;;;9.05;4.93;;;;;;;;;;4312294;33;20074;-77
2023/05/19 02:06:48;;;;;;;7.70;4.87;;;;;;;;;;4304210;33;20062;-76
2023/05/19 02:09:22;;;;;;;8.48;5.35;;;;;;;;;;4315500;33;20040;-76
2023/05/19 02:11:48;;;;;;;13.45;5.07;;;;;;;;;;4316946;33;20013;-76
2023/05/19 02:14:19;;;;;;;8.38;5.50;;;;;;;;;;4300457;33;20067;-77
2023/05/19 02:16:46;;;;;;;18.52;5.45;;;;;;;;;;4300543;33;20513;-76
2023/05/19 02:19:23;;;;;;;7.80;4.60;;;;;;;;;;4298880;33;20052;-76
2023/05/19 02:21:49;;;;;;;9.13;5.05;;;;;;;;;;4300210;33;20370;-76
2023/05/19 02:24:15;;;;;;;6.20;4.15;;;;;;;;;;4300254;33;20075;-76
2023/05/19 02:26:41;;;;;;;9.65;5.40;;;;;;;;;;4300096;33;20048;-76
2023/05/19 02:29:08;;;;;;;13.30;5.03;;;;;;;;;;4300294;33;20129;-76
2023/05/19 02:31:34;;;;;;;8.13;5.30;;;;;;;;;;4300061;33;20058;-77
2023/05/19 02:34:00;;;;;;;7.90;4.70;;;;;;;;;;4300182;33;20046;-76
2023/05/19 02:36:27;;;;;;;12.57;5.32;;;;;;;;;;4298497;33;20063;-76
2023/05/19 02:39:00;;;;;;;7.47;5.20;;;;;;;;;;4300094;33;20033;-77
2023/05/19 02:41:27;;;;;;;8.45;4.95;;;;;;;;;;4299996;33;20049;-76
2023/05/19 02:43:53;;;;;;;9.45;5.07;;;;;;;;;;4300105;33;20048;-77
2023/05/19 02:46:19;;;;;;;7.85;4.47;;;;;;;;;;4315892;33;20099;-77
2023/05/19 02:48:45;;;;;;;12.50;6.50;;;;;;;;;;4285913;33;20457;-77
2023/05/19 02:51:11;;;;;;;8.25;5.15;;;;;;;;;;4285920;33;20041;-77
2023/05/19 02:53:38;;;;;;;9.85;5.20;;;;;;;;;;4285866;33;20084;-77
2023/05/19 02:56:04;;;;;;;8.05;4.55;;;;;;;;;;4285512;33;20042;-77
2023/05/19 02:58:30;;;;;;;9.10;4.97;;;;;;;;;;4285668;33;20079;-78
2023/05/19 03:00:56;;;;;;;6.97;4.50;;;;;;;;;;4284825;33;20432;-77
2023/05/19 03:03:23;;;;;;;15.95;6.15;;;;;;;;;;4285632;33;20041;-77
2023/05/19 03:05:49;;;;;;;11.65;5.80;;;;;;;;;;4285753;33;20047;-77
2023/05/19 03:08:15;;;;;;;9.65;5.70;;;;;;;;;;4285428;33;20066;-76
2023/05/19 03:10:41;;;;;;;14.85;6.25;;;;;;;;;;4285418;33;20210;-77
2023/05/19 03:13:07;;;;;;;5.78;5.28;;;;;;;;;;4285413;33;20093;-76
2023/05/19 03:15:34;;;;;;;11.18;5.97;;;;;;;;;;4285464;33;20104;-77
2023/05/19 03:18:00;;;;;;;10.40;5.53;;;;;;;;;;4285321;33;20038;-77
2023/05/19 03:20:26;;;;;;;10.65;6.70;;;;;;;;;;4285659;33;20096;-76
2023/05/19 03:22:52;;;;;;;6.70;4.65;;;;;;;;;;4285264;33;20038;-77
2023/05/19 03:25:18;;;;;;;8.02;5.32;;;;;;;;;;4285425;33;20397;-78
2023/05/19 03:27:45;;;;;;;7.55;5.35;;;;;;;;;;4285373;33;20317;-77
2023/05/19 03:30:11;;;;;;;9.65;5.90;;;;;;;;;;4285279;33;20128;-78
2023/05/19 03:32:40;;;;;;;6.82;4.62;;;;;;;;;;4285302;33;20126;-77
2023/05/19 03:35:06;;;;;;;4.85;4.20;;;;;;;;;;4285464;33;20022;-77
2023/05/19 03:37:33;;;;;;;9.52;5.30;;;;;;;;;;4284611;33;20066;-78
2023/05/19 03:39:59;;;;;;;6.53;4.82;;;;;;;;;;4271166;33;20355;-77
2023/05/19 03:42:25;;;;;;;8.75;5.57;;;;;;;;;;4271218;33;20376;-77
2023/05/19 03:44:52;;;;;;;8.43;5.45;;;;;;;;;;4273530;33;20031;-77
2023/05/19 03:47:19;;;;;;;8.13;5.07;;;;;;;;;;4273586;33;20071;-78
2023/05/19 03:49:46;;;;;;;7.80;4.32;;;;;;;;;;4273776;33;20026;-77
2023/05/19 03:52:15;;;;;;;8.05;4.43;;;;;;;;;;4273558;33;20064;-76
2023/05/19 03:54:44;;;;;;;10.20;4.78;;;;;;;;;;4273772;33;20054;-76
2023/05/19 03:57:10;;;;;;;13.65;4.80;;;;;;;;;;4273425;33;20037;-77
2023/05/19 03:59:36;;;;;;;7.47;4.57;;;;;;;;;;4272630;33;20179;-77
2023/05/19 04:02:03;;;;;;;8.45;4.93;;;;;;;;;;4272322;33;20053;-77
2023/05/19 04:04:30;;;;;;;7.15;4.35;;;;;;;;;;4273583;33;20033;-77
2023/05/19 04:06:56;;;;;;;10.35;5.03;;;;;;;;;;4273795;33;20041;-77
2023/05/19 04:09:25;;;;;;;6.03;4.00;;;;;;;;;;4273306;33;20033;-77
2023/05/19 04:11:51;;;;;;;4.82;4.00;;;;;;;;;;4297753;33;20041;-76
2023/05/19 04:14:18;;;;;;;23.75;4.10;;;;;;;;;;4301978;33;20502;-76
2023/05/19 04:16:45;;;;;;;6.78;4.55;;;;;;;;;;4301320;33;20049;-77
2023/05/19 04:19:11;;;;;;;8.63;4.00;;;;;;;;;;4302145;33;20033;-76
2023/05/19 04:21:37;;;;;;;8.95;3.72;;;;;;;;;;4301911;33;20085;-76
2023/05/19 04:24:05;;;;;;;7.87;3.87;;;;;;;;;;4300321;33;20049;-77
2023/05/19 04:26:33;;;;;;;10.30;4.90;;;;;;;;;;4301761;33;20060;-76
2023/05/19 04:29:03;;;;;;;7.15;3.80;;;;;;;;;;4301663;33;20051;-76
2023/05/19 04:31:29;;;;;;;5.57;4.00;;;;;;;;;;4301702;33;20052;-77
2023/05/19 04:33:56;;;;;;;7.05;3.85;;;;;;;;;;4316028;33;20033;-76
2023/05/19 04:36:22;;;;;;;7.97;3.65;;;;;;;;;;4318371;33;20045;-76
2023/05/19 04:38:53;;;;;;;6.57;3.50;;;;;;;;;;4287371;33;20029;-77
2023/05/19 04:41:20;;;;;;;6.68;3.47;;;;;;;;;;4287584;33;20038;-77
2023/05/19 04:43:47;;;;;;;5.12;2.90;;;;;;;;;;4287410;33;20051;-77
2023/05/19 04:46:14;;;;;;;5.32;3.35;;;;;;;;;;4287237;33;20122;-77
2023/05/19 04:48:41;;;;;;;6.30;3.25;;;;;;;;;;4287291;33;20041;-76
2023/05/19 04:51:07;;;;;;;5.50;3.90;;;;;;;;;;4286938;33;20525;-77
2023/05/19 04:53:34;;;;;;;4.03;2.83;;;;;;;;;;4287121;33;20033;-76
2023/05/19 04:56:00;;;;;;;6.47;3.50;;;;;;;;;;4286764;33;20065;-77
2023/05/19 04:58:26;;;;;;;5.00;3.30;;;;;;;;;;4286874;33;20329;-77
2023/05/19 05:00:57;;;;;;;5.40;3.25;;;;;;;;;;4286246;33;20071;-76
2023/05/19 05:03:23;;;;;;;3.00;2.67;;;;;;;;;;4286979;33;20018;-77
2023/05/19 05:05:50;;;;;;;5.25;2.78;;;;;;;;;;4286258;33;20037;-77
2023/05/19 05:08:21;;;;;;;4.30;2.55;;;;;;;;;;4286920;33;20471;-77
2023/05/19 05:10:52;;;;;;;3.15;2.40;;;;;;;;;;4315144;33;20423;-77
2023/05/19 05:13:20;;;;;;;6.40;3.03;;;;;;;;;;4317719;33;20126;-76
2023/05/19 05:15:47;;;;;;;6.18;3.00;;;;;;;;;;4301263;33;20049;-76
2023/05/19 05:18:14;;;;;;;6.80;3.10;;;;;;;;;;4299977;33;20350;-77
2023/05/19 05:20:41;;;;;;;5.47;2.85;;;;;;;;;;4301378;33;20045;-77
2023/05/19 05:23:09;;;;;;;9.55;2.95;;;;;;;;;;4299356;33;20396;-77
2023/05/19 05:25:35;;;;;;;6.55;3.20;;;;;;;;;;4301173;33;20044;-76
2023/05/19 05:28:03;;;;;;;5.07;2.83;;;;;;;;;;4299520;33;20067;-76
2023/05/19 05:30:32;;;;;;;4.12;2.45;;;;;;;;;;4300424;33;20036;-76
2023/05/19 05:32:58;;;;;;;8.30;3.08;;;;;;;;;;4289152;33;20042;-76
2023/05/19 05:35:25;;;;;;;4.32;2.47;;;;;;;;;;4286335;33;20038;-76
2023/05/19 05:37:52;;;;;;;6.35;2.95;;;;;;;;;;4285892;33;20067;-76
2023/05/19 05:40:19;;;;;;;5.07;2.65;;;;;;;;;;4300971;33;20048;-75
2023/05/19 05:42:45;;;;;;;8.20;2.80;;;;;;;;;;4301026;33;20415;-75
2023/05/19 05:45:11;;;;;;;2.53;2.22;;;;;;;;;;4300896;33;20054;-76
2023/05/19 05:47:40;;;;;;;3.30;2.12;;;;;;;;;;4301044;33;20073;-76
2023/05/19 05:50:07;;;;;;;8.02;3.25;;;;;;;;;;4300713;33;20040;-76
2023/05/19 05:52:35;;;;;;;3.35;2.40;;;;;;;;;;4300918;33;20449;-76
2023/05/19 05:55:02;;;;;;;2.55;2.35;;;;;;;;;;4300656;33;20044;-76
2023/05/19 05:57:34;;;;;;;3.08;2.62;;;;;;;;;;4300468;33;20037;-75
2023/05/19 06:00:01;;;;;;;7.40;2.35;;;;;;;;;;4300848;33;20055;-76
2023/05/19 06:02:27;;;;;;;7.22;2.78;;;;;;;;;;4299102;33;20040;-75
2023/05/19 06:04:54;;;;;;;1.73;1.62;;;;;;;;;;4300582;33;20374;-76
2023/05/19 06:07:21;;;;;;;2.12;2.03;;;;;;;;;;4299842;33;20063;-76
2023/05/19 06:09:47;;;;;;;10.38;2.87;;;;;;;;;;4300420;33;20208;-75
2023/05/19 06:12:14;;;;;;;2.90;1.98;;;;;;;;;;4298804;33;20036;-75
2023/05/19 06:14:41;;;;;;;3.15;1.85;;;;;;;;;;4300246;33;20055;-76
2023/05/19 06:19:40;;;;;;;3.75;2.50;;;;;;;;;;4312843;33;20338;-75
2023/05/19 06:22:06;;;;;;;3.72;2.55;;;;;;;;;;4299589;33;20049;-75
2023/05/19 06:24:33;;;;;;;2.17;1.98;;;;;;;;;;4300682;33;20063;-75
2023/05/19 06:26:59;;;;;;;2.67;1.75;;;;;;;;;;4297891;33;20048;-75
2023/05/19 06:29:25;;;;;;;3.28;2.20;;;;;;;;;;4295862;33;20062;-75
2023/05/19 06:31:52;;;;;;;4.05;1.92;;;;;;;;;;4294276;33;20090;-75
2023/05/19 06:34:19;;;;;;;7.65;2.20;;;;;;;;;;4297783;33;20125;-75
2023/05/19 06:36:45;;;;;;;1.92;1.77;;;;;;;;;;4294265;33;20143;-74
2023/05/19 06:39:12;;;;;;;2.72;2.03;;;;;;;;;;4284383;33;20059;-75
2023/05/19 06:41:44;;;;;;;3.78;2.22;;;;;;;;;;4281791;33;20365;-74
2023/05/19 06:44:22;;;;;;;7.75;2.53;;;;;;;;;;4272579;33;20074;-75
2023/05/19 06:46:48;;;;;;;3.03;2.12;;;;;;;;;;4279904;33;20427;-75
2023/05/19 06:49:15;;;;;;;3.10;1.65;;;;;;;;;;4278270;33;20049;-75
2023/05/19 06:51:42;;;;;;;6.43;2.15;;;;;;;;;;4279469;33;20033;-76
2023/05/19 06:54:11;;;;;;;4.45;2.42;;;;;;;;;;4305586;33;20044;-76
2023/05/19 06:56:38;;;;;;;9.82;2.33;;;;;;;;;;4308345;33;20089;-74
2023/05/19 06:59:04;;;;;;;2.60;2.30;;;;;;;;;;4305906;33;20045;-74
2023/05/19 07:01:31;;;;;;;3.72;2.22;;;;;;;;;;4306084;33;20033;-76
2023/05/19 07:03:58;;;;;;;1.95;1.85;;;;;;;;;;4310683;33;20098;-75
2023/05/19 07:06:24;;;;;;;3.15;2.55;;;;;;;;;;4295433;33;20445;-76
2023/05/19 07:08:52;;;;;;;5.78;2.33;;;;;;;;;;4301900;33;20067;-74
2023/05/19 07:11:18;;;;;;;4.12;2.15;;;;;;;;;;4293709;33;20080;-74
2023/05/19 07:13:44;;;;;;;2.47;1.95;;;;;;;;;;4269598;33;20455;-74
2023/05/19 07:16:10;;;;;;;3.83;1.87;;;;;;;;;;4262834;33;20064;-73
2023/05/19 07:18:37;;;;;;;3.72;1.98;;;;;;;;;;4266605;33;20106;-75
2023/05/19 07:21:03;;;;;;;6.47;2.05;;;;;;;;;;4271421;33;20241;-75
2023/05/19 07:23:30;;;;;;;3.30;2.08;;;;;;;;;;4260554;33;20126;-76
2023/05/19 07:25:57;;;;;;;3.53;3.08;;;;;;;;;;4269124;33;20373;-75
2023/05/19 07:28:23;;;;;;;2.65;2.30;;;;;;;;;;4268046;33;20116;-75
2023/05/19 07:30:49;;;;;;;11.70;2.65;;;;;;;;;;4269050;33;20037;-76
2023/05/19 07:33:16;;;;;;;8.48;2.33;;;;;;;;;;4268116;33;20037;-75
2023/05/19 07:35:43;;;;;;;3.30;1.98;;;;;;;;;;4268270;33;20101;-76
2023/05/19 07:38:09;;;;;;;2.08;1.60;;;;;;;;;;4308502;33;20127;-75
2023/05/19 07:40:36;;;;;;;3.03;2.53;;;;;;;;;;4317905;33;20113;-76
2023/05/19 07:43:02;;;;;;;8.30;1.70;;;;;;;;;;4319596;33;20045;-76
2023/05/19 07:45:28;;;;;;;2.55;2.35;;;;;;;;;;4326202;33;20033;-75
2023/05/19 07:48:01;;;;;;;3.78;1.90;;;;;;;;;;4327098;33;20455;-74
2023/05/19 07:50:27;;;;;;;2.37;1.85;;;;;;;;;;4316731;33;20106;-76
2023/05/19 07:52:55;;;;;;;4.43;1.95;;;;;;;;;;4317989;33;20052;-75
2023/05/19 07:55:21;;;;;;;6.10;1.80;;;;;;;;;;4325311;33;20062;-74
2023/05/19 07:57:48;;;;;;;6.90;1.90;;;;;;;;;;4298697;33;20088;-75
2023/05/19 08:00:15;;;;;;;2.62;1.60;;;;;;;;;;4291096;33;20490;-75
2023/05/19 08:02:41;;;;;;;2.40;1.90;;;;;;;;;;4265811;33;20045;-74
2023/05/19 08:05:08;;;;;;;2.42;1.55;;;;;;;;;;4269042;33;20081;-74
2023/05/19 08:07:35;;;;;;;4.90;2.50;;;;;;;;;;4268884;33;20045;-75
2023/05/19 08:10:01;;;;;;;4.32;1.90;;;;;;;;;;4244357;33;20042;-73
2023/05/19 08:12:27;;;;;;;2.03;1.90;;;;;;;;;;4239075;33;20093;-74
2023/05/19 08:14:53;;;;;;;2.47;2.03;;;;;;;;;;4239591;33;20556;-73
2023/05/19 08:17:20;;;;;;;6.28;1.95;;;;;;;;;;4241377;33;20114;-72
2023/05/19 08:19:46;;;;;;;2.10;1.83;;;;;;;;;;4242792;33;20033;-72
2023/05/19 08:22:12;;;;;;;5.55;1.98;;;;;;;;;;4253775;33;20034;-73
2023/05/19 08:24:41;;;;;;;3.10;2.03;;;;;;;;;;4255330;33;20094;-75
2023/05/19 08:27:07;;;;;;;3.83;2.05;;;;;;;;;;4253736;33;20068;-74
2023/05/19 08:29:33;;;;;;;7.97;1.77;;;;;;;;;;4277921;33;20190;-76
2023/05/19 08:32:01;;;;;;;6.43;2.28;;;;;;;;;;4279579;33;20049;-76
2023/05/19 08:34:27;;;;;;;3.15;1.75;;;;;;;;;;4293901;33;20581;-76
2023/05/19 08:36:56;;;;;;;7.28;1.73;;;;;;;;;;4292454;33;20063;-73
2023/05/19 08:39:25;;;;;;;6.57;1.80;;;;;;;;;;4292195;33;20176;-75
2023/05/19 08:41:52;;;;;;;4.50;2.37;;;;;;;;;;4292189;33;20042;-73
2023/05/19 08:44:18;;;;;;;3.75;2.35;;;;;;;;;;4280578;33;20075;-73
2023/05/19 08:46:48;;;;;;;4.65;2.00;;;;;;;;;;4276798;33;20053;-73
2023/05/19 08:49:18;;;;;;;5.47;2.35;;;;;;;;;;4294375;33;20037;-74
2023/05/19 08:51:59;;;;;;;11.38;2.45;;;;;;;;;;4308599;33;20095;-78
2023/05/19 08:54:29;;;;;;;3.12;2.40;;;;;;;;;;4303050;33;20041;-76
2023/05/19 08:56:56;;;;;;;3.67;2.10;;;;;;;;;;4300775;33;20045;-72
2023/05/19 08:59:22;;;;;;;11.10;3.80;;;;;;;;;;4281852;33;20037;-76
2023/05/19 09:01:48;;;;;;;2.20;2.00;;;;;;;;;;4275932;33;20468;-76
2023/05/19 09:04:15;;;;;;;3.10;2.42;;;;;;;;;;4279529;33;20364;-75
2023/05/19 09:06:43;;;;;;;3.15;2.25;;;;;;;;;;4277880;33;20038;-77
2023/05/19 09:09:10;;;;;;;3.17;2.87;;;;;;;;;;4267590;33;20055;-75
2023/05/19 09:11:36;;;;;;;8.15;2.35;;;;;;;;;;4246902;33;20372;-75
2023/05/19 09:14:03;;;;;;;2.28;1.80;;;;;;;;;;4242557;33;20377;-75
2023/05/19 09:16:31;;;;;;;4.30;2.58;;;;;;;;;;4242008;33;20050;-74
2023/05/19 09:18:57;;;;;;;7.15;2.40;;;;;;;;;;4242656;33;20039;-75
2023/05/19 09:21:29;;;;;;;3.08;2.58;;;;;;;;;;4244255;33;20056;-76
2023/05/19 09:23:55;;;;;;;;;;;;;;;;;;4244154;33;20182;-75
2023/05/19 09:26:22;;;;;;;4.20;2.15;;;;;;;;;;4242931;33;19977;-79
2023/05/19 09:28:48;;;;;;;3.65;2.33;;;;;;;;;;4244016;33;20099;-74
2023/05/19 09:31:14;;;;;;;8.60;2.67;;;;;;;;;;4256151;33;20038;-74
2023/05/19 09:33:41;;;;;;;5.20;2.87;;;;;;;;;;4257913;33;20063;-74
2023/05/19 09:36:09;;;;;;;6.53;2.40;;;;;;;;;;4257945;33;20098;-74
2023/05/19 09:38:36;;;;;;;3.67;2.28;;;;;;;;;;4258188;33;20383;-74
2023/05/19 09:41:03;;;;;;;4.30;2.53;;;;;;;;;;4255548;33;20042;-74
2023/05/19 09:43:30;;;;;;;4.90;2.58;;;;;;;;;;4284076;33;20055;-75
2023/05/19 09:46:02;;;;;;;3.28;2.37;;;;;;;;;;4288131;33;20073;-73
2023/05/19 09:48:29;;;;;;;7.37;2.20;;;;;;;;;;4286839;33;20122;-74
2023/05/19 09:50:58;;;;;;;4.95;2.08;;;;;;;;;;4300360;33;20436;-74
2023/05/19 09:53:24;;;;;;;5.97;2.45;;;;;;;;;;4302593;33;20063;-74
2023/05/19 09:55:55;;;;;;;2.83;2.28;;;;;;;;;;4296993;33;20058;-74
2023/05/19 09:58:23;;;;;;;5.82;3.00;;;;;;;;;;4298117;33;20060;-73
2023/05/19 10:01:32;;;;;;;8.77;5.10;;;;;;;;;;4449792;32;20038;-75
2023/05/19 10:03:58;;;;;;;8.43;3.00;;;;;;;;;;4423252;32;20403;-75
2023/05/19 10:06:25;;;;;;;3.00;2.50;;;;;;;;;;4418718;32;20057;-75
2023/05/19 10:08:51;;;;;;;13.77;3.47;;;;;;;;;;4416520;32;20086;-74
2023/05/19 10:11:18;;;;;;;3.37;2.80;;;;;;;;;;4416947;32;20039;-75
2023/05/19 10:13:44;;;;;;;2.97;2.67;;;;;;;;;;4416134;32;20064;-76
2023/05/19 10:16:11;;;;;;;3.75;3.15;;;;;;;;;;4417433;32;20031;-75
2023/05/19 10:18:38;;;;;;;3.72;3.03;;;;;;;;;;4417885;32;20064;-75
2023/05/19 10:21:05;;;;;;;4.47;3.10;;;;;;;;;;4417662;32;20039;-75
2023/05/19 10:23:31;;;;;;;7.43;4.65;;;;;;;;;;4417495;32;20079;-75
2023/05/19 10:25:58;;;;;;;5.80;2.90;;;;;;;;;;4418064;32;20039;-76
2023/05/19 10:28:30;;;;;;;4.97;3.22;;;;;;;;;;4417464;32;20447;-76
2023/05/19 10:30:57;;;;;;;5.57;3.35;;;;;;;;;;4374978;32;20032;-76
2023/05/19 10:33:30;;;;;;;5.00;3.20;;;;;;;;;;4370745;32;20043;-76
2023/05/19 10:35:56;;;;;;;;;;;;;;;;;;4384111;32;20028;-75
2023/05/19 10:38:41;;;;;;;3.85;3.50;;;;;;;;;;4388227;32;19988;-74
2023/05/19 10:41:23;;;;;;;5.05;3.42;;;;;;;;;;4390871;32;20055;-74
2023/05/19 10:44:01;;;;;;;5.53;3.58;;;;;;;;;;4393336;32;20043;-74
2023/05/19 10:46:28;;;;;;;5.93;3.00;;;;;;;;;;4392604;32;20087;-76
2023/05/19 10:48:54;;;;;;;6.37;3.10;;;;;;;;;;4393409;32;20054;-74
2023/05/19 10:51:27;;;;;;;7.93;3.03;;;;;;;;;;4365930;32;20052;-73
2023/05/19 10:53:54;;;;;;;3.83;3.53;;;;;;;;;;4364726;32;20057;-73
2023/05/19 10:56:31;;;;;;;3.70;3.40;;;;;;;;;;4364409;32;20055;-75
2023/05/19 10:58:58;;;;;;;3.90;3.60;;;;;;;;;;4363727;32;20035;-75
2023/05/19 11:01:34;;;;;;;4.10;3.67;;;;;;;;;;4534291;27;20260;-74
2023/05/19 11:04:05;;;;;;;6.55;3.78;;;;;;;;;;4374495;32;20104;-75
2023/05/19 11:06:32;;;;;;;10.35;5.00;;;;;;;;;;4366953;32;20043;-72
2023/05/19 11:09:04;;;;;;;4.57;3.78;;;;;;;;;;4366122;32;20129;-74
2023/05/19 11:11:43;;;;;;;7.47;3.58;;;;;;;;;;4359990;32;20106;-75
2023/05/19 11:14:11;;;;;;;8.35;3.62;;;;;;;;;;4354181;32;20064;-74
2023/05/19 11:16:38;;;;;;;11.75;6.40;;;;;;;;;;4354207;32;20404;-72
2023/05/19 11:19:05;;;;;;;5.25;4.55;;;;;;;;;;4356830;32;20081;-74
2023/05/19 11:21:41;;;;;;;6.35;4.60;;;;;;;;;;4353935;32;20047;-74
2023/05/19 11:24:08;;;;;;;6.45;4.40;;;;;;;;;;4338835;33;20568;-75
2023/05/19 11:26:42;;;;;;;8.20;4.72;;;;;;;;;;4335844;32;20044;-72
2023/05/19 11:29:09;;;;;;;10.13;5.22;;;;;;;;;;4331073;33;20310;-75
2023/05/19 11:31:35;;;;;;;5.53;4.60;;;;;;;;;;4335913;33;20081;-74
2023/05/19 11:34:01;;;;;;;11.93;5.05;;;;;;;;;;4335019;33;20183;-75
2023/05/19 11:36:27;;;;;;;8.95;5.15;;;;;;;;;;4336995;32;20047;-75
2023/05/19 11:38:54;;;;;;;7.65;5.00;;;;;;;;;;4354672;32;20052;-74
2023/05/19 11:41:21;;;;;;;8.63;5.72;;;;;;;;;;4359226;32;20047;-73
2023/05/19 11:43:47;;;;;;;9.27;5.68;;;;;;;;;;4357033;32;20044;-74
2023/05/19 11:46:13;;;;;;;6.80;4.93;;;;;;;;;;4357069;32;20031;-74
2023/05/19 11:48:40;;;;;;;13.60;6.28;;;;;;;;;;4360742;32;20055;-73
2023/05/19 11:51:07;;;;;;;7.03;4.65;;;;;;;;;;4356768;32;20047;-75
2023/05/19 11:53:35;;;;;;;7.05;5.07;;;;;;;;;;4354941;32;20047;-75
2023/05/19 11:56:04;;;;;;;7.68;4.60;;;;;;;;;;4356836;32;20136;-75
2023/05/19 11:58:31;;;;;;;11.57;5.07;;;;;;;;;;4358395;32;20546;-75
2023/05/19 12:01:04;;;;;;;6.12;5.32;;;;;;;;;;4365228;32;20027;-76
2023/05/19 12:03:31;;;;;;;11.80;4.47;;;;;;;;;;4361457;32;20073;-74
2023/05/19 12:05:57;;;;;;;5.97;4.15;;;;;;;;;;4357969;32;20036;-75
2023/05/19 12:08:24;;;;;;;7.35;3.90;;;;;;;;;;4355009;32;20052;-75
2023/05/19 12:10:56;;;;;;;8.85;4.95;;;;;;;;;;4357772;32;20475;-74
2023/05/19 12:13:23;;;;;;;8.15;4.90;;;;;;;;;;4363281;32;20058;-73
2023/05/19 12:15:51;;;;;;;6.85;4.85;;;;;;;;;;4365359;32;20068;-75
2023/05/19 12:18:18;;;;;;;5.75;4.60;;;;;;;;;;4363851;32;20077;-75
2023/05/19 12:20:44;;;;;;;12.00;4.28;;;;;;;;;;4336494;33;20040;-72
2023/05/19 12:23:11;;;;;;;7.53;4.53;;;;;;;;;;4304064;33;20116;-75
2023/05/19 12:25:37;;;;;;;10.30;4.62;;;;;;;;;;4295902;33;20048;-75
2023/05/19 12:28:04;;;;;;;5.70;4.60;;;;;;;;;;4293285;33;20192;-75
2023/05/19 12:30:30;;;;;;;5.95;5.00;;;;;;;;;;4291438;33;20084;-74
2023/05/19 12:32:57;;;;;;;7.03;4.87;;;;;;;;;;4298119;33;20040;-73
2023/05/19 12:35:27;;;;;;;13.95;5.87;;;;;;;;;;4320380;33;20049;-75
2023/05/19 12:37:54;;;;;;;11.52;5.25;;;;;;;;;;4319047;33;20066;-75
2023/05/19 12:40:21;;;;;;;9.05;5.57;;;;;;;;;;4319947;33;20088;-74
2023/05/19 12:42:50;;;;;;;10.98;6.35;;;;;;;;;;4304676;33;20064;-76
2023/05/19 12:45:19;;;;;;;13.23;5.45;;;;;;;;;;4304146;33;20053;-76
2023/05/19 12:47:47;;;;;;;7.12;5.05;;;;;;;;;;4307737;33;20099;-76
2023/05/19 12:50:13;;;;;;;8.02;5.45;;;;;;;;;;4302430;33;20041;-74
2023/05/19 12:52:45;;;;;;;8.57;5.37;;;;;;;;;;4330370;33;20442;-74
2023/05/19 12:55:11;;;;;;;14.87;5.13;;;;;;;;;;4354160;32;20101;-73
2023/05/19 12:57:38;;;;;;;6.62;5.45;;;;;;;;;;4365725;32;20155;-74
2023/05/19 13:00:09;;;;;;;7.72;5.15;;;;;;;;;;4351872;32;20078;-74
2023/05/19 13:02:53;;;;;;;10.50;5.93;;;;;;;;;;4362013;32;20057;-74
2023/05/19 13:05:20;;;;;;;7.05;5.90;;;;;;;;;;4367746;32;20055;-74
2023/05/19 13:07:53;;;;;;;9.75;5.90;;;;;;;;;;4331513;33;20067;-76
2023/05/19 13:10:19;;;;;;;12.18;5.72;;;;;;;;;;4331255;32;20108;-74
2023/05/19 13:12:45;;;;;;;11.32;6.22;;;;;;;;;;4326031;32;20107;-73
2023/05/19 13:15:11;;;;;;;11.38;6.43;;;;;;;;;;4350872;32;20182;-74
2023/05/19 13:17:38;;;;;;;17.77;8.35;;;;;;;;;;4365235;32;20614;-74
2023/05/19 13:20:04;;;;;;;14.75;6.10;;;;;;;;;;4329129;33;20095;-74
2023/05/19 13:22:30;;;;;;;12.45;6.22;;;;;;;;;;4335799;33;20949;-74
2023/05/19 13:25:01;;;;;;;15.15;6.60;;;;;;;;;;4336542;33;20047;-75
2023/05/19 13:27:27;;;;;;;15.43;6.30;;;;;;;;;;4327649;33;20054;-74
2023/05/19 13:29:53;;;;;;;12.02;6.85;;;;;;;;;;4336568;33;20172;-75
2023/05/19 13:32:19;;;;;;;13.65;7.45;;;;;;;;;;4325280;33;20084;-75
2023/05/19 13:34:45;;;;;;;9.90;6.25;;;;;;;;;;4323253;33;20062;-76
2023/05/19 13:37:11;;;;;;;10.88;7.47;;;;;;;;;;4270402;33;20103;-72
2023/05/19 13:39:39;;;;;;;15.18;8.55;;;;;;;;;;4281707;33;20131;-75
2023/05/19 13:42:05;;;;;;;15.10;6.82;;;;;;;;;;4287826;33;20057;-74
2023/05/19 13:44:31;;;;;;;13.62;6.85;;;;;;;;;;4305364;33;20102;-74
2023/05/19 13:46:57;;;;;;;14.13;8.02;;;;;;;;;;4310624;33;20049;-75
2023/05/19 13:49:24;;;;;;;16.35;8.35;;;;;;;;;;4310798;33;20075;-73
2023/05/19 13:51:50;;;;;;;10.30;6.93;;;;;;;;;;4312574;33;20049;-75
2023/05/19 13:54:17;;;;;;;12.48;7.80;;;;;;;;;;4334990;33;20044;-73
2023/05/19 13:56:45;;;;;;;14.55;7.57;;;;;;;;;;4337519;32;20040;-74
2023/05/19 13:59:11;;;;;;;12.07;7.20;;;;;;;;;;4301883;33;20048;-70
2023/05/19 14:01:38;;;;;;;11.05;6.37;;;;;;;;;;4303356;33;20057;-76
2023/05/19 14:04:04;;;;;;;16.55;7.07;;;;;;;;;;4305013;33;20048;-75
2023/05/19 14:06:30;;;;;;;11.57;7.40;;;;;;;;;;4305114;33;20658;-75
2023/05/19 14:08:56;;;;;;;12.65;7.50;;;;;;;;;;4316321;33;20078;-73
2023/05/19 14:11:23;;;;;;;11.27;6.75;;;;;;;;;;4318658;33;20436;-73
2023/05/19 14:13:49;;;;;;;20.05;7.40;;;;;;;;;;4309687;33;20443;-72
2023/05/19 14:16:21;;;;;;;14.90;6.82;;;;;;;;;;4309553;33;20066;-74
2023/05/19 14:18:54;;;;;;;11.32;7.05;;;;;;;;;;4306322;33;20045;-73
2023/05/19 14:21:21;;;;;;;13.98;7.70;;;;;;;;;;4304763;33;20113;-70
2023/05/19 14:23:47;;;;;;;15.23;9.02;;;;;;;;;;4298931;33;20045;-74
2023/05/19 14:26:13;;;;;;;13.25;7.82;;;;;;;;;;4301384;33;20119;-74
2023/05/19 14:28:39;;;;;;;11.15;7.55;;;;;;;;;;4304015;33;20424;-75
2023/05/19 14:31:12;;;;;;;16.92;7.40;;;;;;;;;;4327019;33;20044;-73
2023/05/19 14:33:39;;;;;;;12.52;7.05;;;;;;;;;;4334543;33;20353;-76
2023/05/19 14:36:06;;;;;;;10.75;7.53;;;;;;;;;;4335461;33;20106;-75
2023/05/19 14:38:32;;;;;;;9.52;6.82;;;;;;;;;;4305976;33;20044;-75
2023/05/19 14:40:58;;;;;;;11.63;6.45;;;;;;;;;;4315734;33;20066;-76
2023/05/19 14:43:24;;;;;;;10.38;6.37;;;;;;;;;;4304619;33;20044;-76
2023/05/19 14:45:51;;;;;;;11.55;7.12;;;;;;;;;;4301049;33;20433;-74
2023/05/19 14:48:17;;;;;;;10.90;6.78;;;;;;;;;;4291725;33;20443;-75
2023/05/19 14:50:44;;;;;;;10.65;7.03;;;;;;;;;;4292711;33;20053;-75
2023/05/19 14:53:11;;;;;;;11.95;6.35;;;;;;;;;;4292856;33;20234;-75
2023/05/19 14:55:38;;;;;;;13.82;7.62;;;;;;;;;;4294150;33;20075;-75
2023/05/19 14:58:04;;;;;;;11.52;6.15;;;;;;;;;;4292354;33;20037;-76
2023/05/19 15:00:30;;;;;;;13.07;7.10;;;;;;;;;;4297176;33;20206;-74
2023/05/19 15:02:56;;;;;;;8.55;6.12;;;;;;;;;;4335230;33;20040;-76
2023/05/19 15:05:23;;;;;;;14.63;6.20;;;;;;;;;;4323580;33;20056;-73
2023/05/19 15:07:49;;;;;;;8.95;5.57;;;;;;;;;;4304370;33;20546;-70
2023/05/19 15:10:16;;;;;;;12.52;6.00;;;;;;;;;;4291376;33;20071;-73
2023/05/19 15:12:42;;;;;;;19.33;9.05;;;;;;;;;;4291716;33;20040;-73
2023/05/19 15:15:09;;;;;;;15.13;7.20;;;;;;;;;;4303410;33;20213;-73
2023/05/19 15:17:35;;;;;;;16.05;6.93;;;;;;;;;;4302627;33;20058;-73
2023/05/19 15:20:01;;;;;;;15.18;6.43;;;;;;;;;;4298664;33;20839;-72
2023/05/19 15:22:27;;;;;;;17.33;7.80;;;;;;;;;;4299715;33;20044;-72
2023/05/19 15:24:53;;;;;;;20.05;8.20;;;;;;;;;;4307640;33;20045;-73
2023/05/19 15:27:20;;;;;;;17.55;7.72;;;;;;;;;;4305832;33;20075;-73
2023/05/19 15:29:52;;;;;;;16.37;7.57;;;;;;;;;;4309913;33;20418;-73
2023/05/19 15:32:19;;;;;;;18.10;8.02;;;;;;;;;;4308012;33;20062;-73
2023/05/19 15:34:51;;;;;;;17.37;8.40;;;;;;;;;;4308707;33;20060;-72
2023/05/19 15:37:17;;;;;;;13.05;7.40;;;;;;;;;;4301217;33;20048;-71
2023/05/19 15:39:43;;;;;;;18.17;8.18;;;;;;;;;;4327903;32;20135;-73
2023/05/19 15:42:10;;;;;;;13.73;8.43;;;;;;;;;;4334563;33;20109;-72
2023/05/19 15:44:36;;;;;;;13.62;8.80;;;;;;;;;;4333037;32;20056;-72
2023/05/19 15:47:02;;;;;;;13.62;8.60;;;;;;;;;;4337795;33;20195;-72
2023/05/19 15:49:28;;;;;;;16.92;9.50;;;;;;;;;;4356243;32;20074;-73
2023/05/19 15:51:54;;;;;;;17.42;10.43;;;;;;;;;;4323948;33;20040;-72
2023/05/19 15:54:21;;;;;;;14.55;8.52;;;;;;;;;;4326703;33;20142;-73
2023/05/19 15:56:47;;;;;;;18.00;9.30;;;;;;;;;;4327172;33;20282;-74
2023/05/19 15:59:13;;;;;;;15.35;8.48;;;;;;;;;;4323528;33;20457;-73
2023/05/19 16:01:45;;;;;;;;;;;;;;;;;;4330284;33;20043;-73
2023/05/19 16:04:12;;;;;;;23.38;8.10;;;;;;;;;;4340804;32;20403;-70
2023/05/19 16:06:37;;;;;;;16.75;7.65;;;;;;;;;;4343596;32;20081;-72
2023/05/19 16:09:04;;;;;;;19.52;8.77;;;;;;;;;;4356127;32;20048;-72
2023/05/19 16:11:30;;;;;;;11.00;7.30;;;;;;;;;;4356090;32;20061;-71
2023/05/19 16:13:56;;;;;;;16.83;8.27;;;;;;;;;;4352669;32;20382;-72
2023/05/19 16:16:22;;;;;;;15.60;8.50;;;;;;;;;;4354980;32;20050;-73
2023/05/19 16:18:48;;;;;;;19.17;8.65;;;;;;;;;;4352175;32;20052;-74
2023/05/19 16:21:14;;;;;;;10.80;7.35;;;;;;;;;;4359092;32;20429;-73
2023/05/19 16:23:41;;;;;;;10.60;7.90;;;;;;;;;;4381243;32;20506;-73
2023/05/19 16:26:07;;;;;;;16.33;8.52;;;;;;;;;;4385041;32;20077;-73
2023/05/19 16:28:33;;;;;;;17.10;8.43;;;;;;;;;;4383695;32;20080;-71
2023/05/19 16:30:59;;;;;;;14.80;8.55;;;;;;;;;;4368643;32;20040;-74
2023/05/19 16:33:26;;;;;;;19.52;8.02;;;;;;;;;;4352791;32;20527;-74
2023/05/19 16:35:52;;;;;;;11.52;6.80;;;;;;;;;;4357448;32;20178;-74
2023/05/19 16:38:18;;;;;;;16.40;7.10;;;;;;;;;;4367275;32;20057;-73
2023/05/19 16:40:44;;;;;;;16.15;7.75;;;;;;;;;;4355554;32;20070;-73
2023/05/19 16:43:10;;;;;;;14.07;8.75;;;;;;;;;;4356191;32;20122;-75